Time;durP1;ratioP1;P1;durP2;ratioP2;P2;SDS_P1;SDS_P2;PMS_P1;PMS_P2;Temp;Humidity;BMP_temperature;BMP_pressure;BME280_temperature;BME280_humidity;BME280_pressure;Samples;Min_cycle;Max_cycle;Signal;HPM_P1;HPM_P2
2021/11/12 00:12:31;;;;;;;32.40;15.60;;;;;;;7.17;93.97;101598.92;102368;1321;72959;-79
2021/11/12 00:15:42;;;;;;;27.00;13.70;;;;;;;7.18;94.24;101597.39;102454;1323;61345;-79
2021/11/12 00:19:15;;;;;;;27.60;14.50;;;;;;;7.21;94.12;101595.92;102819;1318;61325;-80
2021/11/12 00:22:26;;;;;;;32.20;14.30;;;;;;;7.23;94.08;101594.02;102729;1318;75013;-80
2021/11/12 00:25:24;;;;;;;35.50;15.20;;;;;;;7.24;93.74;101596.05;103341;1318;70362;-82
2021/11/12 00:28:55;;;;;;;30.30;13.60;;;;;;;7.23;93.81;101599.27;102976;1318;72986;-80
2021/11/12 00:49:43;;;;;;;29.40;14.10;;;;;;;7.21;93.90;101605.28;103030;1318;60864;-81
2021/11/12 00:56:53;;;;;;;31.10;15.00;;;;;;;7.22;94.07;101604.96;102810;1318;74138;-83
2021/11/12 01:00:03;;;;;;;32.40;14.70;;;;;;;7.25;94.15;101603.64;102881;1318;71593;-80
2021/11/12 01:03:18;;;;;;;26.70;13.10;;;;;;;7.27;93.76;101601.61;103091;1318;76159;-80
2021/11/12 01:06:00;;;;;;;29.20;13.50;;;;;;;7.28;93.96;101596.02;103121;1318;60690;-81
2021/11/12 01:09:17;;;;;;;;;;;;;;;;;;;;;
2021/11/12 01:12:57;;;;;;;28.90;14.10;;;;;;;7.30;93.66;101591.42;102967;1318;75171;-82
2021/11/12 01:15:33;;;;;;;29.90;14.20;;;;;;;7.28;93.87;101588.85;102801;1318;71276;-78
2021/11/12 01:22:24;;;;;;;31.90;15.10;;;;;;;7.21;93.49;101595.90;103134;1318;62524;-81
2021/11/12 01:25:32;;;;;;;28.90;14.70;;;;;;;7.21;93.88;101595.77;103129;1315;62863;-81
2021/11/12 01:29:09;;;;;;;;;;;;;;;;;;;;;
2021/11/12 01:32:48;;;;;;;38.90;15.80;;;;;;;7.18;93.79;101586.85;102524;1318;72845;-79
2021/11/12 01:38:59;;;;;;;32.90;15.20;;;;;;;7.13;93.69;101588.86;102698;1318;62409;-78
2021/11/12 01:42:34;;;;;;;34.30;14.70;;;;;;;7.14;93.52;101590.73;103296;1318;61401;-79
2021/11/12 01:52:38;;;;;;;27.70;14.40;;;;;;;7.18;93.91;101589.16;102902;1318;74147;-79
2021/11/12 01:55:58;;;;;;;29.50;15.10;;;;;;;7.19;93.66;101591.52;102888;1317;61759;-83
2021/11/12 02:01:56;;;;;;;25.80;12.30;;;;;;;7.19;93.70;101580.41;103107;1318;76339;-78
2021/11/12 02:05:27;;;;;;;;;;;;;;;;;;;;;
2021/11/12 02:08:51;;;;;;;31.80;14.30;;;;;;;7.18;93.41;101570.14;102715;1318;74543;-83
2021/11/12 02:11:20;;;;;;;33.40;15.90;;;;;;;7.19;93.71;101571.67;103073;1317;62078;-81
2021/11/12 02:14:50;;;;;;;33.90;14.70;;;;;;;7.19;93.26;101569.92;103067;1315;61452;-80
2021/11/12 02:17:56;;;;;;;;;;;;;;;;;;;;;
2021/11/12 02:21:42;;;;;;;35.40;15.20;;;;;;;7.27;93.86;101559.89;103312;1318;71643;-79
2021/11/12 02:27:06;;;;;;;30.60;14.70;;;;;;;7.38;94.07;101547.19;103547;1315;61232;-78
2021/11/12 02:30:34;;;;;;;34.50;16.10;;;;;;;7.41;93.41;101544.59;102640;1318;61357;-80
2021/11/12 02:33:49;;;;;;;;;;;;;;;;;;;;;
2021/11/12 02:36:29;;;;;;;32.20;14.80;;;;;;;7.46;93.09;101536.92;103050;1319;70537;-78
2021/11/12 02:39:41;;;;;;;;;;;;;;;;;;;;;
2021/11/12 02:42:31;;;;;;;30.00;15.30;;;;;;;7.44;92.83;101533.46;103366;1319;62287;-79
2021/11/12 02:45:19;;;;;;;;;;;;;;;;;;;;;
2021/11/12 02:48:39;;;;;;;;;;;;;;;;;;;;;
2021/11/12 02:51:35;;;;;;;26.80;14.50;;;;;;;7.40;92.70;101540.98;103047;1318;70182;-79
2021/11/12 02:54:26;;;;;;;26.30;13.40;;;;;;;7.38;92.90;101533.61;103435;1318;73213;-80
2021/11/12 02:57:46;;;;;;;;;;;;;;;;;;;;;
2021/11/12 03:01:16;;;;;;;35.90;14.90;;;;;;;7.39;92.58;101529.86;102884;1318;61004;-80
2021/11/12 03:04:36;;;;;;;33.90;14.60;;;;;;;7.39;92.50;101527.19;102578;1318;73713;-80
2021/11/12 03:07:54;;;;;;;;;;;;;;;;;;;;;
2021/11/12 03:11:09;;;;;;;30.10;14.40;;;;;;;7.36;92.34;101527.79;102996;1318;74177;-81
2021/11/12 03:14:20;;;;;;;;;;;;;;;;;;;;;
2021/11/12 03:17:25;;;;;;;;;;;;;;;;;;;;;
2021/11/12 03:21:02;;;;;;;30.20;14.30;;;;;;;7.43;92.57;101522.28;103000;1317;74880;-81
2021/11/12 03:28:01;;;;;;;;;;;;;;;;;;;;;
2021/11/12 04:19:28;;;;;;;25.50;13.40;;;;;;;7.27;93.74;101486.82;102628;1318;62510;-82
2021/11/12 04:49:15;;;;;;;18.40;9.70;;;;;;;7.07;94.48;101471.38;103081;1318;74662;-81
2021/11/12 05:49:43;;;;;;;24.00;12.20;;;;;;;7.03;96.42;101439.39;103231;1318;71645;-79
2021/11/12 05:56:42;;;;;;;27.90;13.50;;;;;;;6.99;96.68;101435.47;102741;1318;60056;-79
2021/11/12 05:59:21;;;;;;;26.30;12.70;;;;;;;6.98;96.94;101429.80;102409;1318;74920;-80
2021/11/12 06:01:54;;;;;;;28.00;12.90;;;;;;;6.97;97.08;101428.61;102556;1318;71475;-79
2021/11/12 06:04:24;;;;;;;27.80;12.80;;;;;;;6.96;96.83;101422.91;102491;1318;73215;-78
2021/11/12 06:06:56;;;;;;;21.90;12.90;;;;;;;6.94;96.94;101419.85;103014;1316;62241;-80
2021/11/12 06:09:23;;;;;;;28.50;13.60;;;;;;;6.90;96.98;101412.53;102989;1318;60622;-80
2021/11/12 06:12:04;;;;;;;;;;;;;;;;;;;;;
2021/11/12 06:14:40;;;;;;;23.90;12.20;;;;;;;6.80;96.74;101403.93;102728;1318;71901;-76
2021/11/12 06:17:56;;;;;;;25.30;11.90;;;;;;;6.76;96.48;101397.59;102500;1316;74221;-77
2021/11/12 06:20:24;;;;;;;23.20;11.60;;;;;;;6.69;96.67;101405.53;101687;1318;359524;-77
2021/11/12 06:22:53;;;;;;;24.40;12.90;;;;;;;6.62;96.65;101405.24;102600;1318;61765;-76
2021/11/12 06:25:40;;;;;;;23.80;11.90;;;;;;;6.54;96.48;101399.59;102737;1318;74921;-76
2021/11/12 06:28:16;;;;;;;24.40;11.90;;;;;;;6.44;96.56;101391.30;102795;1318;71460;-77
2021/11/12 06:30:56;;;;;;;25.30;12.70;;;;;;;6.34;96.46;101386.23;102366;1318;73118;-77
2021/11/12 06:33:27;;;;;;;28.60;12.70;;;;;;;6.25;96.81;101394.88;102271;1318;63384;-78
2021/11/12 06:36:04;;;;;;;24.90;12.80;;;;;;;6.17;97.04;101396.62;102576;1318;60490;-78
2021/11/12 06:38:41;;;;;;;;;;;;;;;;;;;;;
2021/11/12 06:41:13;;;;;;;27.40;13.60;;;;;;;6.06;97.56;101406.28;102556;1318;70690;-77
2021/11/12 06:49:27;;;;;;;28.10;13.80;;;;;;;5.88;97.47;101397.88;102355;1318;61312;-80
2021/11/12 06:51:54;;;;;;;17.30;8.60;;;;;;;5.83;97.58;101396.79;102433;1321;76010;-77
2021/11/12 06:54:21;;;;;;;19.90;10.30;;;;;;;5.76;97.47;101392.20;102436;1317;71450;-79
2021/11/12 06:56:48;;;;;;;24.50;11.00;;;;;;;5.69;97.35;101392.83;102804;1318;73031;-79
2021/11/12 06:59:24;;;;;;;24.90;12.40;;;;;;;5.62;97.43;101389.86;102501;1318;61435;-77
2021/11/12 07:02:17;;;;;;;25.10;12.60;;;;;;;5.58;97.55;101387.20;102514;1318;61203;-79
2021/11/12 07:04:45;;;;;;;22.00;11.00;;;;;;;5.52;97.53;101388.92;102416;1318;74937;-76
2021/11/12 07:07:13;;;;;;;26.20;11.40;;;;;;;5.48;97.46;101382.45;102534;1318;72605;-76
2021/11/12 07:09:49;;;;;;;25.40;11.40;;;;;;;5.44;97.33;101374.70;102727;1318;72878;-79
2021/11/12 07:12:20;;;;;;;21.70;10.30;;;;;;;5.40;97.77;101362.39;102640;1318;61376;-78
2021/11/12 07:14:50;;;;;;;23.90;10.10;;;;;;;5.39;98.31;101357.91;102853;1318;61709;-78
2021/11/12 07:17:17;;;;;;;15.00;6.80;;;;;;;5.39;98.47;101361.70;102614;1318;75051;-78
2021/11/12 07:19:54;;;;;;;20.60;9.70;;;;;;;5.39;98.92;101362.45;102663;1318;71473;-78
2021/11/12 07:22:21;;;;;;;17.80;9.30;;;;;;;5.36;98.76;101361.27;102505;1319;73068;-77
2021/11/12 07:24:50;;;;;;;15.40;8.10;;;;;;;5.35;98.95;101356.86;102549;1318;61715;-77
2021/11/12 07:27:38;;;;;;;;;;;;;;;;;;;;;
2021/11/12 07:30:26;;;;;;;20.10;11.30;;;;;;;5.36;99.34;101347.50;102976;1318;75686;-79
2021/11/12 07:32:53;;;;;;;19.40;10.00;;;;;;;5.40;99.26;101351.86;102365;1318;71196;-79
2021/11/12 07:35:28;;;;;;;17.60;9.50;;;;;;;5.40;99.80;101341.64;102654;1318;75146;-78
2021/11/12 07:38:21;;;;;;;23.00;10.10;;;;;;;5.49;99.42;101340.59;102523;1318;61881;-78
2021/11/12 07:47:10;;;;;;;;;;;;;;;;;;;;;
2021/11/12 07:50:07;;;;;;;12.40;6.10;;;;;;;5.67;99.19;101339.59;102635;1318;74575;-77
2021/11/12 07:52:48;;;;;;;14.30;6.30;;;;;;;5.72;99.05;101349.52;102870;1318;62414;-77
2021/11/12 07:55:17;;;;;;;13.70;7.40;;;;;;;5.77;99.10;101343.56;102759;1318;60680;-77
2021/11/12 07:57:44;;;;;;;14.30;7.50;;;;;;;5.80;99.01;101332.61;102483;1318;75978;-77
2021/11/12 08:00:35;;;;;;;14.80;6.00;;;;;;;5.84;99.55;101325.77;102745;1319;71415;-78
2021/11/12 08:03:03;;;;;;;9.00;5.30;;;;;;;5.92;99.70;101328.60;102866;1318;72933;-77
2021/11/12 08:05:38;;;;;;;12.70;6.40;;;;;;;6.00;99.58;101323.39;102081;1318;62265;-76
2021/11/12 08:08:10;;;;;;;11.20;5.60;;;;;;;6.11;99.86;101318.75;102627;1318;61637;-80
2021/11/12 08:10:52;;;;;;;10.50;4.40;;;;;;;6.24;99.77;101307.17;102779;1321;75172;-76
2021/11/12 08:14:30;;;;;;;9.40;5.80;;;;;;;6.36;99.83;101304.17;102509;1318;71485;-81
2021/11/12 08:18:25;;;;;;;11.50;5.60;;;;;;;6.51;99.65;101297.73;102271;1319;74026;-78
2021/11/12 08:19:41;;;;;;;8.80;4.70;;;;;;;6.63;99.13;101285.98;102352;1317;62497;-81
2021/11/12 08:22:16;;;;;;;8.90;5.50;;;;;;;6.73;99.05;101274.73;102724;1319;60393;-78
2021/11/12 08:25:06;;;;;;;7.50;4.40;;;;;;;6.83;98.84;101274.09;102616;1318;75064;-77
2021/11/12 08:36:20;;;;;;;7.90;4.20;;;;;;;7.20;97.72;101265.63;102197;1318;61485;-78
2021/11/12 08:42:34;;;;;;;7.90;4.40;;;;;;;7.38;96.81;101256.16;102202;1318;71492;-77
2021/11/12 08:45:19;;;;;;;6.00;3.30;;;;;;;7.43;96.32;101255.29;102329;1318;74008;-77
2021/11/12 08:47:52;;;;;;;;;;;;;;;7.45;95.94;101244.38;102422;1318;62259;-78
2021/11/12 08:50:24;;;;;;;4.60;2.70;;;;;;;7.49;96.17;101239.96;102227;1318;61341;-78
2021/11/12 08:52:54;;;;;;;12.20;4.20;;;;;;;7.52;95.85;101236.48;102117;1318;74769;-76
2021/11/12 08:55:44;;;;;;;7.00;3.60;;;;;;;7.55;95.34;101233.25;102117;1318;71646;-76
2021/11/12 08:58:12;;;;;;;8.20;3.90;;;;;;;7.62;95.70;101236.13;102067;1318;72793;-77
2021/11/12 09:00:42;;;;;;;6.10;3.40;;;;;;;7.67;95.49;101233.94;102151;1322;61404;-76
2021/11/12 09:03:13;;;;;;;5.40;2.90;;;;;;;7.69;95.23;101237.57;102294;1318;61289;-76
2021/11/12 09:05:39;;;;;;;8.00;3.60;;;;;;;7.69;94.83;101241.96;102046;1318;73796;-79
2021/11/12 09:08:10;;;;;;;5.60;3.30;;;;;;;7.72;94.92;101251.00;102019;1318;70373;-76
2021/11/12 09:10:37;;;;;;;5.80;2.70;;;;;;;7.73;94.71;101251.11;102182;1318;72632;-77
2021/11/12 09:13:22;;;;;;;4.80;2.70;;;;;;;7.74;94.30;101247.64;102099;1320;63261;-78
2021/11/12 09:15:55;;;;;;;7.10;3.50;;;;;;;7.76;94.45;101239.73;102296;1322;62546;-77
2021/11/12 09:18:23;;;;;;;6.40;2.70;;;;;;;7.76;93.80;101226.89;102375;1322;75957;-79
2021/11/12 09:20:53;;;;;;;4.30;2.40;;;;;;;7.75;94.17;101223.78;102167;1319;72488;-79
2021/11/12 09:23:26;;;;;;;7.90;3.10;;;;;;;7.73;94.23;101222.90;102230;1318;74074;-76
2021/11/12 09:26:18;;;;;;;7.60;2.60;;;;;;;7.72;94.18;101219.13;102202;1319;62192;-77
2021/11/12 09:28:45;;;;;;;6.50;2.80;;;;;;;7.71;94.16;101218.69;102004;1318;61321;-77
2021/11/12 09:32:03;;;;;;;;;;;;;;;;;;;;;
2021/11/12 09:34:34;;;;;;;3.50;1.90;;;;;;;7.75;94.33;101229.07;101968;1324;71808;-77
2021/11/12 09:37:02;;;;;;;2.70;1.40;;;;;;;7.78;93.96;101221.45;102118;1318;72917;-78
2021/11/12 09:39:57;;;;;;;4.50;2.10;;;;;;;7.82;93.94;101219.66;102183;1318;62237;-78
2021/11/12 09:42:42;;;;;;;2.70;1.50;;;;;;;7.89;93.37;101221.50;102145;1319;61722;-77
2021/11/12 09:45:15;;;;;;;2.90;1.30;;;;;;;7.92;92.81;101225.02;102106;1319;76263;-78
2021/11/12 09:47:46;;;;;;;3.40;1.70;;;;;;;7.96;93.16;101225.70;102282;1318;71491;-75
2021/11/12 09:50:39;;;;;;;3.90;1.50;;;;;;;8.01;92.73;101217.00;102086;1318;73397;-76
2021/11/12 09:53:08;;;;;;;4.30;1.90;;;;;;;8.05;92.70;101208.17;102098;1319;61874;-77
2021/11/12 09:55:44;;;;;;;3.00;1.70;;;;;;;8.09;92.39;101198.95;102382;1318;61430;-77
2021/11/12 09:58:12;;;;;;;2.30;1.40;;;;;;;8.13;92.14;101196.42;102264;1318;76163;-77
2021/11/12 10:00:39;;;;;;;95.60;33.60;;;;;;;8.19;91.55;101194.10;102098;1318;71470;-76
2021/11/12 10:03:08;;;;;;;12.60;4.00;;;;;;;8.27;91.25;101192.55;102339;1322;74932;-76
2021/11/12 10:06:03;;;;;;;5.30;1.60;;;;;;;8.33;90.77;101187.20;102090;1318;63008;-75
2021/11/12 10:08:55;;;;;;;2.70;1.00;;;;;;;8.38;89.88;101190.48;102298;1322;61820;-76
2021/11/12 10:12:10;;;;;;;2.40;1.00;;;;;;;8.45;88.86;101191.27;101990;1319;75041;-79
2021/11/12 10:15:03;;;;;;;2.70;1.10;;;;;;;8.53;87.65;101188.64;102107;1321;72610;-77
2021/11/12 10:17:31;;;;;;;1.60;0.90;;;;;;;8.62;87.30;101192.48;102221;1319;73322;-77
2021/11/12 10:20:23;;;;;;;;;;;;;;;;;;;;;
2021/11/12 10:22:54;;;;;;;1.40;0.80;;;;;;;8.93;85.98;101187.89;102317;1318;61408;-78
2021/11/12 10:25:21;;;;;;;1.60;0.70;;;;;;;9.08;84.89;101183.89;102163;1318;77031;-78
2021/11/12 10:28:21;;;;;;;1.80;0.90;;;;;;;9.22;83.37;101183.06;102287;1318;70336;-77
2021/11/12 10:30:48;;;;;;;2.20;1.10;;;;;;;9.39;83.56;101193.34;102280;1318;74048;-77
2021/11/12 10:33:17;;;;;;;2.00;1.00;;;;;;;9.52;82.24;101191.64;102499;1318;61326;-77
2021/11/12 10:35:51;;;;;;;2.40;1.20;;;;;;;9.58;81.93;101191.79;102218;1321;61226;-78
2021/11/12 10:38:38;;;;;;;2.10;1.20;;;;;;;9.65;81.68;101187.75;102317;1319;75056;-76
2021/11/12 10:41:20;;;;;;;1.90;1.10;;;;;;;9.70;81.18;101185.80;102024;1319;72552;-76
2021/11/12 10:44:15;;;;;;;2.60;1.40;;;;;;;9.57;79.35;101179.31;102261;1318;72963;-77
2021/11/12 10:47:14;;;;;;;1.90;0.90;;;;;;;9.42;79.04;101169.54;102272;1318;61772;-76
2021/11/12 10:49:42;;;;;;;2.30;1.30;;;;;;;9.27;78.90;101156.93;102231;1318;61308;-75
2021/11/12 10:52:15;;;;;;;2.80;1.40;;;;;;;9.18;79.39;101151.08;102199;1318;75428;-77
2021/11/12 10:55:01;;;;;;;2.40;1.30;;;;;;;9.18;79.73;101150.45;102371;1319;71596;-78
2021/11/12 10:57:40;;;;;;;1.90;1.00;;;;;;;9.24;79.67;101154.75;102162;1320;73040;-80
2021/11/12 11:00:15;;;;;;;2.20;1.10;;;;;;;9.38;78.90;101156.56;102544;1318;61395;-78
2021/11/12 11:02:52;;;;;;;3.60;1.00;;;;;;;9.56;78.29;101152.02;102116;1318;61314;-77
2021/11/12 11:05:37;;;;;;;1.70;1.00;;;;;;;9.57;77.42;101141.00;102301;1318;73896;-77
2021/11/12 11:08:07;;;;;;;2.20;1.10;;;;;;;9.42;77.28;101136.91;102512;1318;73039;-77
2021/11/12 11:10:35;;;;;;;2.70;1.60;;;;;;;9.39;77.16;101135.40;102428;1318;74016;-75
2021/11/12 11:13:25;;;;;;;2.80;1.40;;;;;;;9.59;76.95;101132.70;102274;1318;61351;-78
2021/11/12 11:16:21;;;;;;;2.50;1.30;;;;;;;9.71;76.34;101128.08;102233;1318;61237;-76
2021/11/12 11:18:54;;;;;;;3.00;1.60;;;;;;;9.82;75.57;101133.96;102215;1319;76015;-76
2021/11/12 11:22:11;;;;;;;4.70;2.00;;;;;;;10.12;75.17;101133.17;102693;1318;72750;-79
2021/11/12 11:24:32;;;;;;;2.30;1.40;;;;;;;10.16;74.40;101127.96;102497;1320;74018;-77
2021/11/12 11:27:01;;;;;;;3.80;1.90;;;;;;;10.25;73.57;101116.77;102280;1318;61561;-79
2021/11/12 11:29:33;;;;;;;3.70;2.10;;;;;;;10.44;72.27;101108.84;102240;1318;61252;-77
2021/11/12 11:32:01;;;;;;;4.90;2.50;;;;;;;10.78;71.48;101107.98;102298;1317;76335;-77
2021/11/12 11:34:30;;;;;;;3.50;2.20;;;;;;;11.07;69.90;101105.27;102154;1320;71018;-75
2021/11/12 11:37:03;;;;;;;4.80;3.00;;;;;;;11.20;68.43;101096.55;102188;1318;73765;-77
2021/11/12 11:39:39;;;;;;;4.10;2.30;;;;;;;11.53;67.76;101089.72;102255;1321;61360;-77
2021/11/12 11:42:10;;;;;;;5.50;3.10;;;;;;;11.90;66.55;101085.36;102323;1318;61624;-77
2021/11/12 11:44:42;;;;;;;4.30;3.00;;;;;;;12.35;65.90;101082.73;102370;1318;73843;-78
2021/11/12 11:47:12;;;;;;;3.80;2.60;;;;;;;12.82;65.18;101085.39;102421;1318;72649;-77
2021/11/12 11:49:52;;;;;;;4.90;2.10;;;;;;;13.18;63.35;101081.45;102317;1318;72862;-79
2021/11/12 11:52:28;;;;;;;4.70;2.60;;;;;;;13.49;62.34;101081.39;102113;1321;61969;-77
2021/11/12 11:54:56;;;;;;;4.30;2.40;;;;;;;13.69;61.07;101086.81;102310;1318;60568;-79
2021/11/12 11:57:30;;;;;;;3.50;2.30;;;;;;;13.81;60.52;101080.59;102373;1319;75404;-77
2021/11/12 12:00:20;;;;;;;5.50;2.60;;;;;;;14.25;60.43;101076.86;102273;1318;72542;-74
2021/11/12 12:02:47;;;;;;;4.60;3.20;;;;;;;14.78;58.97;101069.02;102272;1318;74087;-77
2021/11/12 12:05:14;;;;;;;5.20;3.40;;;;;;;15.24;58.25;101066.16;102217;1322;61595;-77
2021/11/12 12:07:54;;;;;;;4.80;3.00;;;;;;;15.70;55.95;101063.86;102262;1320;61570;-77
2021/11/12 12:10:27;;;;;;;6.20;4.40;;;;;;;15.97;55.17;101057.80;102094;1318;76127;-77
2021/11/12 12:13:00;;;;;;;6.60;5.10;;;;;;;16.45;53.20;101055.26;102440;1318;71478;-77
2021/11/12 12:15:47;;;;;;;;;;;;;;;;;;;;;
2021/11/12 12:18:18;;;;;;;7.00;5.00;;;;;;;16.63;49.81;101054.98;102174;1319;61256;-76
2021/11/12 12:21:21;;;;;;;9.80;7.00;;;;;;;16.89;49.01;101057.98;102502;1320;61321;-80
2021/11/12 12:33:02;;;;;;;8.30;6.40;;;;;;;18.22;44.78;101051.37;102299;1323;61770;-77
2021/11/12 12:39:41;;;;;;;11.40;7.60;;;;;;;17.27;46.90;101053.72;102182;1318;73908;-77
2021/11/12 13:21:30;;;;;;;9.50;6.70;;;;;;;20.00;40.46;100978.02;102118;1318;74986;-77
2021/11/12 13:24:15;;;;;;;10.00;8.70;;;;;;;19.58;40.56;100972.33;102159;1323;71319;-79
2021/11/12 13:27:07;;;;;;;9.70;7.40;;;;;;;19.29;41.33;100968.36;102187;1323;72669;-77
2021/11/12 13:29:37;;;;;;;9.90;7.30;;;;;;;19.14;42.04;100959.88;102355;1319;61308;-78
2021/11/12 13:32:06;;;;;;;7.90;6.80;;;;;;;19.14;41.87;100953.42;102161;1318;61340;-79
2021/11/12 13:34:47;;;;;;;11.30;7.70;;;;;;;19.23;41.42;100955.27;102230;1320;76613;-77
2021/11/12 13:37:22;;;;;;;10.10;8.10;;;;;;;19.35;41.36;100960.72;102167;1321;71660;-81
2021/11/12 13:40:11;;;;;;;10.40;7.80;;;;;;;19.92;41.16;100957.58;102358;1319;73129;-80
2021/11/12 13:42:49;;;;;;;8.60;7.70;;;;;;;20.49;39.37;100947.70;102131;1325;61375;-78
2021/11/12 13:45:19;;;;;;;9.60;7.80;;;;;;;20.88;38.13;100940.76;102159;1323;61268;-77
2021/11/12 13:47:47;;;;;;;11.50;9.00;;;;;;;21.03;37.27;100943.92;102365;1322;74745;-80
2021/11/12 13:50:17;;;;;;;10.50;8.40;;;;;;;21.20;37.23;100936.65;102309;1317;71484;-77
2021/11/12 13:52:45;;;;;;;11.20;7.90;;;;;;;21.32;37.32;100926.44;102153;1324;74608;-79
2021/11/12 13:55:16;;;;;;;10.70;7.70;;;;;;;21.47;36.71;100917.29;102027;1320;62594;-76
2021/11/12 13:57:56;;;;;;;11.30;9.20;;;;;;;21.25;36.49;100915.21;102388;1319;61321;-79
2021/11/12 14:00:26;;;;;;;10.00;7.00;;;;;;;20.91;37.12;100911.90;102097;1319;75580;-80
2021/11/12 14:03:02;;;;;;;9.50;7.40;;;;;;;20.52;37.85;100909.29;102260;1318;71784;-80
2021/11/12 14:05:30;;;;;;;8.70;6.60;;;;;;;19.89;38.70;100905.10;102224;1319;72950;-76
2021/11/12 14:08:20;;;;;;;10.50;7.60;;;;;;;19.28;39.79;100907.76;102259;1317;61343;-75
2021/11/12 14:10:51;;;;;;;11.30;7.80;;;;;;;18.76;40.75;100913.44;102316;1319;61223;-80
2021/11/12 14:13:24;;;;;;;12.20;8.40;;;;;;;18.45;41.23;100908.63;102295;1318;73309;-79
2021/11/12 14:24:47;;;;;;;11.30;9.20;;;;;;;17.08;44.56;100908.65;102265;1319;61384;-76
2021/11/12 14:27:49;;;;;;;10.30;8.20;;;;;;;16.81;44.75;100901.73;102226;1318;76025;-77
2021/11/12 14:30:50;;;;;;;14.40;10.20;;;;;;;16.15;45.94;100895.77;102062;1317;71505;-77
2021/11/12 14:33:26;;;;;;;9.20;7.10;;;;;;;15.56;47.42;100900.94;102361;1318;73274;-77
2021/11/12 14:36:37;;;;;;;14.10;8.30;;;;;;;14.96;48.56;100900.73;102061;1319;62442;-79
2021/11/12 14:42:25;;;;;;;;;;;;;;;;;;;;;
2021/11/12 14:47:54;;;;;;;;;;;;;;;;;;;;;
2021/11/12 14:50:48;;;;;;;14.20;8.70;;;;;;;11.53;59.43;100883.64;102170;1318;60795;-77
2021/11/12 14:53:29;;;;;;;14.20;8.10;;;;;;;10.88;61.82;100874.27;102212;1319;62157;-78
2021/11/12 14:56:18;;;;;;;;;;;;;;;;;;;;;
2021/11/12 14:58:54;;;;;;;11.10;6.20;;;;;;;9.95;65.14;100858.46;101945;1319;71427;-78
2021/11/12 15:01:37;;;;;;;;;;;;;;;;;;;;;
2021/11/12 15:04:16;;;;;;;;;;;;;;;;;;;;;
2021/11/12 15:06:50;;;;;;;11.90;7.60;;;;;;;8.92;69.39;100845.39;102106;1318;61331;-77
2021/11/12 15:09:27;;;;;;;17.60;9.50;;;;;;;8.67;71.22;100846.82;102068;1318;75043;-77
2021/11/12 15:11:54;;;;;;;15.60;9.30;;;;;;;8.39;72.85;100845.57;102461;1318;71419;-78
2021/11/12 15:14:35;;;;;;;18.40;9.20;;;;;;;8.16;73.71;100839.58;102176;1322;71794;-77
2021/11/12 15:17:09;;;;;;;14.80;8.90;;;;;;;7.96;75.24;100836.88;102104;1317;62522;-77
2021/11/12 15:20:00;;;;;;;17.80;10.20;;;;;;;7.75;76.10;100836.66;102139;1317;61345;-84
2021/11/12 15:25:08;;;;;;;11.30;6.20;;;;;;;7.33;77.78;100827.23;102120;1319;71395;-77
2021/11/12 15:27:48;;;;;;;15.70;8.10;;;;;;;7.17;78.88;100833.19;102129;1318;74024;-76
2021/11/12 15:30:44;;;;;;;16.60;8.50;;;;;;;7.04;78.95;100830.13;102203;1320;61924;-78
2021/11/12 15:33:16;;;;;;;;;;;;;;;6.88;79.50;100830.06;102062;1322;61286;-77
2021/11/12 15:36:11;;;;;;;14.60;7.50;;;;;;;6.74;79.71;100822.40;101991;1318;76538;-77
2021/11/12 15:38:53;;;;;;;12.40;7.30;;;;;;;6.59;80.65;100814.16;102106;1319;71391;-77
2021/11/12 15:42:54;;;;;;;14.90;7.60;;;;;;;6.47;81.50;100813.13;102166;1319;74258;-76
2021/11/12 15:44:15;;;;;;;10.90;6.40;;;;;;;6.37;82.33;100807.13;101856;1318;61482;-77
2021/11/12 15:46:47;;;;;;;18.30;7.50;;;;;;;6.28;82.88;100804.80;102104;1322;61906;-76
2021/11/12 15:49:40;;;;;;;18.40;8.70;;;;;;;6.19;83.30;100803.89;102101;1318;74096;-77
2021/11/12 15:52:11;;;;;;;18.50;9.90;;;;;;;6.10;83.85;100799.96;102101;1320;72399;-76
2021/11/12 15:55:28;;;;;;;14.20;8.20;;;;;;;6.02;84.42;100797.95;102111;1318;74237;-76
2021/11/12 15:57:51;;;;;;;22.60;10.30;;;;;;;5.93;84.84;100800.46;101941;1321;62534;-76
2021/11/12 16:00:36;;;;;;;20.40;8.90;;;;;;;5.86;85.42;100798.84;102082;1317;61314;-76
2021/11/12 16:13:59;;;;;;;20.30;9.60;;;;;;;5.55;85.89;100822.60;101547;1326;61381;-77
2021/11/12 16:27:55;;;;;;;20.90;10.90;;;;;;;5.35;88.62;100828.36;102076;1318;61225;-76
2021/11/12 16:30:40;;;;;;;21.70;11.50;;;;;;;5.30;88.27;100829.35;101976;1318;74893;-76
2021/11/12 16:33:10;;;;;;;14.90;7.70;;;;;;;5.22;88.87;100823.17;102178;1318;72419;-76
2021/11/12 16:35:42;;;;;;;12.60;7.10;;;;;;;5.18;90.42;100806.71;102101;1318;74149;-76
2021/11/12 16:38:40;;;;;;;24.10;13.00;;;;;;;5.16;91.31;100805.20;102064;1318;61624;-77
2021/11/12 16:41:16;;;;;;;18.50;9.20;;;;;;;5.11;90.26;100805.96;102174;1318;61342;-75
2021/11/12 16:53:21;;;;;;;22.90;11.30;;;;;;;4.81;91.02;100801.46;101860;1318;61541;-77
2021/11/12 16:56:48;;;;;;;29.50;16.40;;;;;;;4.74;91.18;100799.10;102308;1318;62187;-78
2021/11/12 16:59:24;;;;;;;;;;;;;;;4.66;90.61;100796.98;102123;1324;75057;-77
2021/11/12 17:02:40;;;;;;;25.40;13.40;;;;;;;4.61;91.08;100793.20;102135;1320;71551;-76
2021/11/12 17:06:09;;;;;;;23.50;13.00;;;;;;;4.56;91.34;100782.58;102038;1318;73130;-76
2021/11/12 17:11:58;;;;;;;18.40;10.60;;;;;;;4.48;92.47;100788.01;101952;1323;61302;-77
2021/11/12 17:15:43;;;;;;;17.70;9.80;;;;;;;4.46;92.53;100787.95;102105;1319;75980;-79
2021/11/12 17:22:05;;;;;;;29.50;13.10;;;;;;;4.41;92.33;100782.48;101453;1324;74183;-76
2021/11/12 17:46:50;;;;;;;24.10;12.90;;;;;;;4.07;93.13;100798.00;102101;1317;76514;-76
2021/11/12 17:48:40;;;;;;;22.90;12.20;;;;;;;4.04;93.34;100792.98;102188;1318;72926;-77
2021/11/12 18:03:34;;;;;;;19.20;8.30;;;;;;;3.98;95.70;100784.42;101982;1322;72792;-76
2021/11/12 21:47:25;;;;;;;;;;;;;;;;;;;;;
2021/11/12 21:50:42;;;;;;;28.20;13.70;;;;;;;2.68;96.10;100626.00;102415;1315;61379;-79
2021/11/12 21:53:33;;;;;;;23.90;12.20;;;;;;;2.72;96.14;100638.25;102942;1318;75842;-78
2021/11/12 21:56:45;;;;;;;;;;;;;;;;;;;;;
2021/11/12 22:00:14;;;;;;;18.70;10.50;;;;;;;2.76;95.89;100635.47;102135;1318;72593;-79
2021/11/12 22:06:16;;;;;;;29.60;15.80;;;;;;;2.78;96.01;100639.36;102263;1318;61219;-79
2021/11/12 22:09:33;;;;;;;;;;;;;;;;;;;;;
2021/11/12 22:12:44;;;;;;;;;;;;;;;;;;;;;
2021/11/12 22:15:19;;;;;;;26.50;13.50;;;;;;;2.86;95.72;100628.34;102428;1318;72953;-77
2021/11/12 22:18:49;;;;;;;30.90;16.80;;;;;;;2.89;95.96;100629.04;102529;1318;61926;-80
2021/11/12 22:22:08;;;;;;;25.80;13.60;;;;;;;2.93;95.72;100631.79;98902;1315;5415263;-81
2021/11/12 22:25:14;;;;;;;27.70;13.30;;;;;;;2.98;95.68;100634.05;102803;1317;76204;-79
2021/11/12 22:28:14;;;;;;;33.60;13.70;;;;;;;3.01;95.53;100634.70;102550;1318;72680;-78
2021/11/12 22:31:15;;;;;;;;;;;;;;;;;;;;;
2021/11/12 22:34:17;;;;;;;23.30;11.00;;;;;;;3.04;95.44;100616.36;102317;1318;61415;-78
2021/11/12 22:37:37;;;;;;;;;;;;;;;;;;;;;
2021/11/12 22:41:19;;;;;;;14.70;7.70;;;;;;;3.10;95.80;100601.55;102359;1318;75999;-79
2021/11/12 22:44:05;;;;;;;16.20;7.70;;;;;;;3.17;95.64;100593.80;102457;1318;72652;-77
2021/11/12 22:47:33;;;;;;;16.30;8.60;;;;;;;3.23;95.51;100579.63;102525;1318;72968;-81
2021/11/12 22:50:45;;;;;;;;;;;;;;;;;;;;;
2021/11/12 22:54:16;;;;;;;22.80;11.20;;;;;;;3.38;94.56;100562.48;102356;1318;62806;-79
2021/11/12 22:57:32;;;;;;;;;;;;;;;;;;;;;
2021/11/12 23:00:47;;;;;;;;;;;;;;;;;;;;;
2021/11/12 23:04:16;;;;;;;21.40;10.30;;;;;;;3.54;93.83;100555.05;102012;1318;74319;-79
2021/11/12 23:07:28;;;;;;;17.50;9.40;;;;;;;3.51;93.72;100549.83;102442;1318;62196;-80
2021/11/12 23:13:24;;;;;;;;;;;;;;;;;;;;;
2021/11/12 23:16:14;;;;;;;;;;;;;;;;;;;;;
2021/11/12 23:19:28;;;;;;;24.60;13.00;;;;;;;3.50;94.07;100572.36;102526;1314;74415;-79
2021/11/12 23:22:57;;;;;;;27.60;14.90;;;;;;;3.53;94.16;100578.39;102562;1318;61522;-80
2021/11/12 23:26:14;;;;;;;23.90;12.90;;;;;;;3.53;93.93;100589.90;102974;1318;61367;-79
2021/11/12 23:29:21;;;;;;;21.80;12.70;;;;;;;3.57;93.81;100584.48;102038;1314;78496;-80
2021/11/12 23:32:51;;;;;;;27.70;14.10;;;;;;;3.59;93.67;100574.34;102724;1318;71665;-79